createdAt,value
2023-03-11T00:00:34.384Z,74.90
2023-03-11T00:03:02.823Z,74.50
2023-03-11T00:05:32.324Z,74.70
2023-03-11T00:07:59.889Z,74.70
2023-03-11T00:10:30.452Z,74.90
2023-03-11T00:12:58.243Z,74.90
2023-03-11T00:15:26.118Z,74.90
2023-03-11T00:17:53.130Z,75.00
2023-03-11T00:20:23.415Z,75.10
2023-03-11T00:22:53.939Z,75.00
2023-03-11T00:25:22.644Z,75.10
2023-03-11T00:27:49.723Z,75.20
2023-03-11T00:30:22.128Z,75.30
2023-03-11T00:32:50.772Z,75.20
2023-03-11T00:35:21.200Z,75.30
2023-03-11T00:37:49.091Z,75.30
2023-03-11T00:40:19.414Z,75.50
2023-03-11T00:42:46.756Z,75.60
2023-03-11T00:45:14.831Z,75.50
2023-03-11T00:47:41.897Z,75.60
2023-03-11T00:50:12.199Z,75.70
2023-03-11T00:52:39.243Z,75.90
2023-03-11T00:55:07.656Z,75.90
2023-03-11T00:57:35.672Z,76.00
2023-03-11T01:00:04.103Z,76.20
2023-03-11T01:02:30.916Z,76.20
2023-03-11T01:04:57.694Z,76.20
2023-03-11T01:07:24.500Z,76.30
2023-03-11T01:09:51.427Z,76.30
2023-03-11T01:12:18.221Z,76.30
2023-03-11T01:14:45.086Z,76.30
2023-03-11T01:17:11.934Z,76.30
2023-03-11T01:19:38.705Z,76.50
2023-03-11T01:22:05.658Z,76.60
2023-03-11T01:24:34.473Z,76.40
2023-03-11T01:27:01.316Z,76.50
2023-03-11T01:29:28.107Z,76.50
2023-03-11T01:31:56.387Z,76.40
2023-03-11T01:34:27.353Z,76.40
2023-03-11T01:36:54.141Z,76.30
2023-03-11T01:39:20.959Z,76.50
2023-03-11T01:41:48.305Z,76.50
2023-03-11T01:44:15.135Z,76.60
2023-03-11T01:46:52.184Z,76.60
2023-03-11T01:49:22.856Z,76.50
2023-03-11T01:51:53.327Z,76.60
2023-03-11T01:54:24.092Z,76.60
2023-03-11T01:56:51.816Z,76.70
2023-03-11T01:59:31.855Z,76.80
2023-03-11T02:02:14.831Z,76.70
2023-03-11T02:05:09.550Z,76.80
2023-03-11T02:07:41.070Z,76.90
2023-03-11T02:10:13.499Z,77.00
2023-03-11T02:12:41.246Z,77.10
2023-03-11T02:15:09.819Z,77.10
2023-03-11T02:17:37.867Z,77.20
2023-03-11T02:20:21.872Z,77.30
2023-03-11T02:22:49.779Z,77.30
2023-03-11T02:25:35.817Z,77.40
2023-03-11T02:28:07.605Z,77.30
2023-03-11T02:30:35.834Z,77.40
2023-03-11T02:33:03.587Z,77.50
2023-03-11T02:35:31.530Z,77.40
2023-03-11T02:37:59.869Z,77.40
2023-03-11T02:40:39.268Z,77.40
2023-03-11T02:43:10.608Z,77.40
2023-03-11T02:45:41.504Z,77.50
2023-03-11T02:48:11.787Z,77.60
2023-03-11T02:50:40.318Z,77.60
2023-03-11T02:53:07.955Z,77.60
2023-03-11T02:55:34.831Z,77.60
2023-03-11T02:58:01.668Z,77.40
2023-03-11T03:00:28.945Z,77.50
2023-03-11T03:03:01.508Z,77.60
2023-03-11T03:05:29.242Z,77.60
2023-03-11T03:07:58.028Z,77.50
2023-03-11T03:10:24.997Z,77.40
2023-03-11T03:12:51.827Z,77.30
2023-03-11T03:15:18.980Z,77.30
2023-03-11T03:17:46.545Z,77.10
2023-03-11T03:20:14.543Z,77.10
2023-03-11T03:22:46.948Z,77.10
2023-03-11T03:25:17.006Z,77.30
2023-03-11T03:27:44.037Z,77.50
2023-03-11T03:30:11.719Z,77.70
2023-03-11T03:32:39.600Z,77.90
2023-03-11T03:35:10.668Z,77.90
2023-03-11T03:37:56.475Z,78.00
2023-03-11T03:40:23.823Z,78.00
2023-03-11T03:42:52.378Z,78.00
2023-03-11T03:45:20.060Z,78.10
2023-03-11T03:47:48.535Z,78.10
2023-03-11T03:50:15.396Z,78.20
2023-03-11T03:52:46.334Z,78.20
2023-03-11T03:55:13.317Z,78.20
2023-03-11T03:57:40.740Z,78.10
2023-03-11T04:00:11.110Z,78.00
2023-03-11T04:02:40.615Z,77.90
2023-03-11T04:05:13.047Z,77.90
2023-03-11T04:07:41.450Z,77.80
2023-03-11T04:10:09.160Z,77.70
2023-03-11T04:12:36.054Z,77.70
2023-03-11T04:15:03.202Z,77.80
2023-03-11T04:17:30.032Z,77.70
2023-03-11T04:19:57.054Z,77.70
2023-03-11T04:22:23.997Z,77.60
2023-03-11T04:24:50.974Z,77.70
2023-03-11T04:27:19.219Z,77.60
2023-03-11T04:29:46.239Z,77.50
2023-03-11T04:32:13.145Z,77.40
2023-03-11T04:34:41.998Z,77.40
2023-03-11T04:37:09.361Z,77.40
2023-03-11T04:39:37.027Z,77.40
2023-03-11T04:42:04.237Z,77.40
2023-03-11T04:44:35.787Z,77.40
2023-03-11T04:47:03.777Z,77.40
2023-03-11T04:49:30.980Z,77.40
2023-03-11T04:51:57.940Z,77.40
2023-03-11T04:54:25.899Z,77.40
2023-03-11T04:56:53.357Z,77.30
2023-03-11T04:59:20.644Z,77.30
2023-03-11T05:01:48.976Z,77.40
2023-03-11T05:04:17.008Z,77.40
2023-03-11T05:06:43.861Z,77.40
2023-03-11T05:09:12.803Z,77.50
2023-03-11T05:11:40.693Z,77.40
2023-03-11T05:14:07.953Z,77.50
2023-03-11T05:16:35.737Z,77.50
2023-03-11T05:19:24.331Z,77.40
2023-03-11T05:21:51.578Z,77.50
2023-03-11T05:24:19.018Z,77.60
2023-03-11T05:26:48.482Z,77.70
2023-03-11T05:29:16.282Z,77.70
2023-03-11T05:31:43.491Z,77.70
2023-03-11T05:34:10.686Z,77.70
2023-03-11T05:36:37.776Z,77.70
2023-03-11T05:39:04.879Z,77.70
2023-03-11T05:41:33.985Z,77.80
2023-03-11T05:44:01.418Z,77.80
2023-03-11T05:46:28.445Z,77.80
2023-03-11T05:48:56.078Z,77.80
2023-03-11T05:51:23.303Z,77.80
2023-03-11T05:53:50.256Z,77.90
2023-03-11T05:56:25.102Z,77.90
2023-03-11T05:58:53.847Z,77.90
2023-03-11T06:01:20.873Z,78.00
2023-03-11T06:03:48.153Z,78.00
2023-03-11T06:06:15.172Z,78.00
2023-03-11T06:08:46.174Z,78.10
2023-03-11T06:11:13.118Z,78.10
2023-03-11T06:13:40.414Z,78.20
2023-03-11T06:16:09.826Z,78.20
2023-03-11T06:18:36.949Z,78.20
2023-03-11T06:21:04.961Z,78.30
2023-03-11T06:23:33.034Z,78.30
2023-03-11T06:26:04.218Z,78.40
2023-03-11T06:28:36.250Z,78.40
2023-03-11T06:31:21.982Z,78.60
2023-03-11T06:33:49.026Z,78.60
2023-03-11T06:36:18.136Z,78.70
2023-03-11T06:38:46.727Z,78.70
2023-03-11T06:41:14.855Z,78.90
2023-03-11T06:43:42.158Z,78.90
2023-03-11T06:46:10.968Z,79.00
2023-03-11T06:48:39.467Z,79.10
2023-03-11T06:51:06.449Z,79.10
2023-03-11T06:53:34.342Z,79.00
2023-03-11T06:56:08.130Z,79.10
2023-03-11T06:58:42.823Z,79.20
2023-03-11T07:01:24.348Z,79.30
2023-03-11T07:03:52.860Z,79.50
2023-03-11T07:06:24.733Z,79.70
2023-03-11T07:08:54.229Z,79.70
2023-03-11T07:11:23.613Z,79.80
2023-03-11T07:13:54.452Z,79.90
2023-03-11T07:16:27.017Z,80.00
2023-03-11T07:19:02.861Z,80.50
2023-03-11T07:21:31.873Z,81.60
2023-03-11T07:24:00.978Z,83.00
2023-03-11T07:26:29.377Z,85.10
2023-03-11T07:28:57.548Z,87.30
2023-03-11T07:31:31.717Z,89.80
2023-03-11T07:34:01.064Z,91.80
2023-03-11T07:36:29.231Z,92.20
2023-03-11T07:39:04.246Z,91.10
2023-03-11T07:41:34.246Z,89.70
2023-03-11T07:44:02.958Z,88.50
2023-03-11T07:46:31.351Z,89.20
2023-03-11T07:48:58.796Z,89.30
2023-03-11T07:51:28.404Z,87.90
2023-03-11T07:53:56.994Z,84.10
2023-03-11T07:56:25.836Z,79.90
2023-03-11T07:58:53.201Z,78.60
2023-03-11T08:01:22.878Z,78.00
2023-03-11T08:03:51.862Z,78.00
2023-03-11T08:06:24.625Z,77.10
2023-03-11T08:08:51.774Z,77.30
2023-03-11T08:11:20.670Z,78.40
2023-03-11T08:13:48.244Z,78.00
2023-03-11T08:16:18.260Z,77.90
2023-03-11T08:18:47.342Z,76.50
2023-03-11T08:21:16.636Z,74.80
2023-03-11T08:23:44.114Z,73.30
2023-03-11T08:26:14.004Z,72.80
2023-03-11T08:28:41.112Z,70.20
2023-03-11T08:31:24.157Z,65.90
2023-03-11T08:33:53.287Z,61.00
2023-03-11T08:36:20.929Z,61.00
2023-03-11T08:38:48.075Z,59.80
2023-03-11T08:41:15.803Z,58.30
2023-03-11T08:43:43.061Z,58.20
2023-03-11T08:46:25.070Z,59.00
2023-03-11T08:48:52.522Z,57.10
2023-03-11T08:51:20.128Z,56.00
2023-03-11T08:53:47.960Z,54.20
2023-03-11T08:56:14.807Z,53.20
2023-03-11T08:58:41.578Z,54.00
2023-03-11T09:01:11.452Z,55.20
2023-03-11T09:03:38.971Z,54.00
2023-03-11T09:06:09.437Z,54.30
2023-03-11T09:08:36.658Z,53.40
2023-03-11T09:11:03.671Z,54.20
2023-03-11T09:13:30.564Z,54.80
2023-03-11T09:15:57.585Z,55.20
2023-03-11T09:18:24.509Z,52.90
2023-03-11T09:20:51.585Z,52.40
2023-03-11T09:23:18.718Z,50.50
2023-03-11T09:25:45.546Z,50.60
2023-03-11T09:28:12.356Z,50.30
2023-03-11T09:30:39.299Z,50.70
2023-03-11T09:33:06.421Z,48.80
2023-03-11T09:35:33.535Z,50.10
2023-03-11T09:38:00.686Z,51.10
2023-03-11T09:40:32.847Z,50.20
2023-03-11T09:42:59.562Z,51.10
2023-03-11T09:45:32.284Z,50.60
2023-03-11T09:48:37.129Z,48.20
2023-03-11T09:51:15.631Z,44.80
2023-03-11T09:53:44.823Z,45.10
2023-03-11T09:56:22.405Z,45.80
2023-03-11T09:59:15.594Z,43.70
2023-03-11T10:01:50.061Z,46.10
2023-03-11T10:04:20.299Z,43.90
2023-03-11T10:06:47.997Z,44.20
2023-03-11T10:09:52.622Z,42.60
2023-03-11T10:12:32.034Z,40.50
2023-03-11T10:15:06.229Z,39.90
2023-03-11T10:17:44.946Z,39.50
2023-03-11T10:20:22.650Z,40.90
2023-03-11T10:23:26.067Z,40.80
2023-03-11T10:26:20.459Z,38.70
2023-03-11T10:29:00.053Z,38.70
2023-03-11T10:31:33.364Z,38.60
2023-03-11T10:34:15.517Z,38.90
2023-03-11T10:37:01.889Z,39.10
2023-03-11T10:39:29.439Z,38.80
2023-03-11T10:42:01.923Z,39.20
2023-03-11T10:44:34.307Z,38.90
2023-03-11T10:47:02.200Z,39.60
2023-03-11T10:49:29.757Z,39.80
2023-03-11T10:51:57.261Z,40.70
2023-03-11T10:54:39.625Z,39.70
2023-03-11T10:57:22.531Z,40.40
2023-03-11T11:00:01.018Z,42.50
2023-03-11T11:02:32.497Z,41.70
2023-03-11T11:05:17.889Z,41.30
2023-03-11T11:07:47.633Z,39.20
2023-03-11T11:10:21.932Z,39.30
2023-03-11T11:13:15.274Z,39.00
2023-03-11T11:16:06.283Z,38.70
2023-03-11T11:18:55.779Z,38.00
2023-03-11T11:21:33.542Z,37.80
2023-03-11T11:24:15.646Z,36.60
2023-03-11T11:26:42.752Z,35.10
2023-03-11T11:29:15.054Z,35.50
2023-03-11T11:31:44.769Z,35.40
2023-03-11T11:34:31.520Z,34.90
2023-03-11T11:37:05.350Z,35.00
2023-03-11T11:39:58.259Z,33.90
2023-03-11T11:42:28.320Z,34.00
2023-03-11T11:45:04.470Z,33.00
2023-03-11T11:47:36.074Z,33.00
2023-03-11T11:50:07.218Z,32.70
2023-03-11T11:53:01.752Z,31.50
2023-03-11T11:55:30.742Z,32.50
2023-03-11T11:57:57.866Z,33.60
2023-03-11T12:00:37.901Z,32.10
2023-03-11T12:03:16.479Z,31.30
2023-03-11T12:06:03.096Z,31.50
2023-03-11T12:09:00.577Z,29.90
2023-03-11T12:11:37.162Z,29.90
2023-03-11T12:14:49.226Z,29.30
2023-03-11T12:17:23.631Z,30.30
2023-03-11T12:20:03.629Z,29.70
2023-03-11T12:22:57.791Z,29.10
2023-03-11T12:25:24.905Z,28.70
2023-03-11T12:28:18.933Z,28.60
2023-03-11T12:30:53.311Z,27.80
2023-03-11T12:33:27.892Z,27.90
2023-03-11T12:35:58.058Z,28.20
2023-03-11T12:38:38.727Z,28.30
2023-03-11T12:41:14.925Z,28.80
2023-03-11T12:43:41.654Z,29.90
2023-03-11T12:46:14.382Z,29.30
2023-03-11T12:48:46.542Z,29.20
2023-03-11T12:51:37.412Z,28.70
2023-03-11T12:54:34.398Z,28.20
2023-03-11T12:57:16.830Z,27.70
2023-03-11T13:00:07.047Z,27.60
2023-03-11T13:02:53.175Z,27.80
2023-03-11T13:05:29.605Z,26.80
2023-03-11T13:08:21.501Z,26.50
2023-03-11T13:10:56.348Z,25.80
2023-03-11T13:13:33.757Z,27.20
2023-03-11T13:16:12.937Z,27.90
2023-03-11T13:18:41.985Z,27.80
2023-03-11T13:21:38.184Z,28.20
2023-03-11T13:24:22.683Z,28.00
2023-03-11T13:27:09.917Z,27.80
2023-03-11T13:29:52.279Z,26.70
2023-03-11T13:32:34.089Z,26.20
2023-03-11T13:35:32.725Z,27.20
2023-03-11T13:38:30.138Z,27.40
2023-03-11T13:40:57.194Z,27.40
2023-03-11T13:43:26.330Z,27.50
2023-03-11T13:46:08.278Z,27.10
2023-03-11T13:48:45.352Z,26.60
2023-03-11T13:51:22.112Z,26.70
2023-03-11T13:53:56.280Z,26.90
2023-03-11T13:56:38.385Z,27.50
2023-03-11T13:59:27.755Z,28.40
2023-03-11T14:02:01.593Z,27.70
2023-03-11T14:04:37.576Z,27.70
2023-03-11T14:07:35.448Z,27.50
2023-03-11T14:10:17.420Z,27.30
2023-03-11T14:12:44.924Z,27.10
2023-03-11T14:15:24.133Z,26.70
2023-03-11T14:17:52.648Z,27.10
2023-03-11T14:20:22.477Z,27.40
2023-03-11T14:22:55.157Z,27.10
2023-03-11T14:25:28.169Z,27.60
2023-03-11T14:28:01.096Z,28.50
2023-03-11T14:30:30.395Z,28.90
2023-03-11T14:33:06.529Z,29.00
2023-03-11T14:35:34.634Z,29.60
2023-03-11T14:38:01.682Z,29.30
2023-03-11T14:40:34.160Z,29.70
2023-03-11T14:43:07.878Z,28.40
2023-03-11T14:45:40.418Z,28.90
2023-03-11T14:48:41.755Z,29.60
2023-03-11T14:51:15.631Z,30.50
2023-03-11T14:54:15.538Z,29.50
2023-03-11T14:56:47.920Z,29.40
2023-03-11T14:59:26.983Z,30.30
2023-03-11T15:01:57.971Z,28.20
2023-03-11T15:04:33.287Z,28.30
2023-03-11T15:07:01.770Z,29.00
2023-03-11T15:09:29.582Z,28.30
2023-03-11T15:11:59.243Z,28.30
2023-03-11T15:14:28.745Z,28.90
2023-03-11T15:17:08.432Z,29.30
2023-03-11T15:19:35.264Z,30.30
2023-03-11T15:22:27.368Z,30.00
2023-03-11T15:24:59.841Z,29.90
2023-03-11T15:27:37.202Z,29.90
2023-03-11T15:30:19.130Z,30.10
2023-03-11T15:32:46.867Z,29.50
2023-03-11T15:35:18.994Z,28.90
2023-03-11T15:37:47.705Z,28.80
2023-03-11T15:40:42.368Z,28.30
2023-03-11T15:43:23.930Z,26.70
2023-03-11T15:45:55.683Z,26.00
2023-03-11T15:48:23.564Z,26.30
2023-03-11T15:50:56.349Z,26.70
2023-03-11T15:53:25.575Z,27.40
2023-03-11T15:55:54.440Z,27.50
2023-03-11T15:58:22.084Z,27.40
2023-03-11T16:00:56.192Z,27.40
2023-03-11T16:03:23.952Z,27.90
2023-03-11T16:05:51.276Z,28.10
2023-03-11T16:08:18.254Z,27.20
2023-03-11T16:10:45.263Z,27.10
2023-03-11T16:13:16.026Z,27.50
2023-03-11T16:15:43.487Z,27.90
2023-03-11T16:18:10.979Z,28.00
2023-03-11T16:20:47.474Z,28.20
2023-03-11T16:23:26.324Z,28.00
2023-03-11T16:26:04.823Z,28.70
2023-03-11T16:28:31.724Z,28.60
2023-03-11T16:30:58.722Z,28.60
2023-03-11T16:33:26.037Z,28.70
2023-03-11T16:35:52.885Z,28.60
2023-03-11T16:38:23.013Z,28.50
2023-03-11T16:41:08.140Z,28.70
2023-03-11T16:43:35.128Z,29.00
2023-03-11T16:46:02.268Z,29.20
2023-03-11T16:48:29.216Z,29.60
2023-03-11T16:50:56.058Z,29.10
2023-03-11T16:53:25.103Z,29.70
2023-03-11T16:55:52.878Z,29.80
2023-03-11T16:58:19.807Z,30.20
2023-03-11T17:00:47.120Z,30.20
2023-03-11T17:03:17.173Z,30.30
2023-03-11T17:05:44.360Z,30.30
2023-03-11T17:08:12.011Z,30.50
2023-03-11T17:10:43.414Z,30.80
2023-03-11T17:13:12.698Z,31.10
2023-03-11T17:15:42.217Z,31.50
2023-03-11T17:18:09.090Z,32.70
2023-03-11T17:20:38.061Z,34.80
2023-03-11T17:23:04.932Z,36.10
2023-03-11T17:25:31.779Z,36.90
2023-03-11T17:27:58.840Z,37.70
2023-03-11T17:30:36.427Z,38.10
2023-03-11T17:33:03.902Z,38.60
2023-03-11T17:35:30.718Z,39.10
2023-03-11T17:37:57.593Z,39.50
2023-03-11T17:40:26.906Z,39.70
2023-03-11T17:42:53.898Z,40.10
2023-03-11T17:45:20.784Z,40.40
2023-03-11T17:47:47.549Z,41.10
2023-03-11T17:50:14.490Z,41.50
2023-03-11T17:52:41.341Z,42.00
2023-03-11T17:55:08.713Z,42.60
2023-03-11T17:57:44.768Z,43.20
2023-03-11T18:00:14.643Z,43.30
2023-03-11T18:02:41.764Z,43.40
2023-03-11T18:05:09.398Z,43.70
2023-03-11T18:07:39.080Z,44.00
2023-03-11T18:10:09.399Z,44.40
2023-03-11T18:12:36.630Z,44.70
2023-03-11T18:15:07.184Z,44.80
2023-03-11T18:17:37.315Z,45.20
2023-03-11T18:20:05.068Z,45.50
2023-03-11T18:22:34.864Z,45.80
2023-03-11T18:25:02.097Z,46.00
2023-03-11T18:27:28.924Z,46.40
2023-03-11T18:29:55.769Z,46.50
2023-03-11T18:32:24.639Z,46.80
2023-03-11T18:34:51.497Z,47.30
2023-03-11T18:37:18.411Z,47.70
2023-03-11T18:39:45.234Z,47.90
2023-03-11T18:42:14.162Z,48.20
2023-03-11T18:44:41.787Z,48.40
2023-03-11T18:47:08.594Z,48.60
2023-03-11T18:49:35.456Z,48.90
2023-03-11T18:52:02.310Z,49.00
2023-03-11T18:54:29.151Z,49.20
2023-03-11T18:56:55.905Z,49.40
2023-03-11T18:59:22.745Z,49.50
2023-03-11T19:01:50.892Z,49.60
2023-03-11T19:04:17.856Z,49.70
2023-03-11T19:06:44.681Z,49.90
2023-03-11T19:09:12.115Z,49.90
2023-03-11T19:11:38.997Z,50.10
2023-03-11T19:14:05.795Z,50.10
2023-03-11T19:16:32.633Z,50.10
2023-03-11T19:19:00.365Z,50.40
2023-03-11T19:21:27.664Z,50.60
2023-03-11T19:23:56.498Z,50.80
2023-03-11T19:26:41.543Z,51.00
2023-03-11T19:29:10.515Z,51.10
2023-03-11T19:31:37.433Z,51.30
2023-03-11T19:34:04.547Z,51.30
2023-03-11T19:36:31.512Z,51.30
2023-03-11T19:38:58.286Z,51.40
2023-03-11T19:41:25.202Z,51.50
2023-03-11T19:43:52.327Z,51.80
2023-03-11T19:46:21.214Z,52.10
2023-03-11T19:48:48.162Z,52.40
2023-03-11T19:51:17.142Z,52.70
2023-03-11T19:53:44.087Z,52.60
2023-03-11T19:56:10.842Z,52.70
2023-03-11T19:58:38.040Z,53.00
2023-03-11T20:01:05.097Z,53.30
2023-03-11T20:03:32.033Z,53.60
2023-03-11T20:06:05.350Z,53.90
2023-03-11T20:08:36.719Z,54.10
2023-03-11T20:11:05.669Z,54.20
2023-03-11T20:13:34.527Z,54.40
2023-03-11T20:16:10.362Z,54.50
2023-03-11T20:18:37.432Z,54.70
2023-03-11T20:21:08.873Z,54.80
2023-03-11T20:23:36.616Z,55.10
2023-03-11T20:26:08.609Z,55.20
2023-03-11T20:28:35.696Z,55.40
2023-03-11T20:31:17.149Z,55.50
2023-03-11T20:33:44.239Z,55.60
2023-03-11T20:36:15.092Z,55.60
2023-03-11T20:38:42.287Z,55.60
2023-03-11T20:41:10.424Z,55.60
2023-03-11T20:43:38.406Z,55.70
2023-03-11T20:46:06.675Z,55.80
2023-03-11T20:48:34.222Z,55.80
2023-03-11T20:51:03.447Z,55.90
2023-03-11T20:53:31.135Z,56.00
2023-03-11T20:55:59.263Z,56.10
2023-03-11T20:58:26.587Z,56.20
2023-03-11T21:00:53.491Z,56.30
2023-03-11T21:03:20.573Z,56.50
2023-03-11T21:05:47.623Z,56.70
2023-03-11T21:08:14.571Z,56.80
2023-03-11T21:10:41.556Z,56.80
2023-03-11T21:13:08.610Z,56.90
2023-03-11T21:15:38.266Z,57.00
2023-03-11T21:18:06.982Z,57.00
2023-03-11T21:20:33.950Z,57.10
2023-03-11T21:23:00.747Z,57.10
2023-03-11T21:25:28.491Z,57.20
2023-03-11T21:27:55.247Z,57.40
2023-03-11T21:30:22.173Z,57.40
2023-03-11T21:32:49.268Z,57.60
2023-03-11T21:35:16.345Z,57.70
2023-03-11T21:37:43.237Z,57.60
2023-03-11T21:40:11.041Z,57.50
2023-03-11T21:42:37.975Z,57.50
2023-03-11T21:45:05.364Z,57.50
2023-03-11T21:47:32.313Z,57.50
2023-03-11T21:49:59.532Z,57.70
2023-03-11T21:52:26.724Z,57.90
2023-03-11T21:54:53.533Z,58.10
2023-03-11T21:57:20.304Z,58.30
2023-03-11T21:59:47.240Z,58.50
2023-03-11T22:02:16.058Z,58.50
2023-03-11T22:04:43.630Z,58.60
2023-03-11T22:07:10.562Z,58.50
2023-03-11T22:09:37.560Z,58.60
2023-03-11T22:12:04.766Z,58.50
2023-03-11T22:14:31.653Z,58.40
2023-03-11T22:16:58.399Z,58.30
2023-03-11T22:19:25.334Z,58.20
2023-03-11T22:21:52.407Z,58.10
2023-03-11T22:24:19.304Z,58.10
2023-03-11T22:26:46.162Z,58.10
2023-03-11T22:29:13.760Z,58.10
2023-03-11T22:31:40.896Z,58.00
2023-03-11T22:34:07.878Z,58.10
2023-03-11T22:36:34.711Z,58.10
2023-03-11T22:39:04.199Z,58.20
2023-03-11T22:41:31.812Z,58.20
2023-03-11T22:43:58.737Z,58.20
2023-03-11T22:46:26.269Z,58.30
2023-03-11T22:48:53.007Z,58.30
2023-03-11T22:51:19.739Z,58.40
2023-03-11T22:53:47.176Z,58.40
2023-03-11T22:56:15.844Z,58.50
2023-03-11T22:58:43.225Z,58.60
2023-03-11T23:01:10.872Z,58.50
2023-03-11T23:03:38.925Z,58.60
2023-03-11T23:06:08.740Z,58.70
2023-03-11T23:08:36.255Z,58.70
2023-03-11T23:11:09.281Z,58.80
2023-03-11T23:13:36.516Z,58.80
2023-03-11T23:16:15.357Z,58.90
2023-03-11T23:18:43.691Z,58.90
2023-03-11T23:21:18.877Z,58.90
2023-03-11T23:23:46.347Z,59.00
2023-03-11T23:26:14.097Z,58.90
2023-03-11T23:28:42.006Z,59.00
2023-03-11T23:31:10.678Z,59.10
2023-03-11T23:33:38.730Z,58.80
2023-03-11T23:36:09.006Z,58.70
2023-03-11T23:38:36.734Z,58.90
2023-03-11T23:41:12.293Z,59.00
2023-03-11T23:43:40.055Z,59.10
2023-03-11T23:46:07.961Z,59.10
2023-03-11T23:48:35.188Z,59.10
2023-03-11T23:51:02.484Z,59.10
2023-03-11T23:53:31.573Z,59.10
2023-03-11T23:55:58.670Z,59.00
2023-03-11T23:58:25.896Z,59.00
